Time;durP1;ratioP1;P1;durP2;ratioP2;P2;SDS_P1;SDS_P2;PMS_P1;PMS_P2;Temp;Humidity;BMP_temperature;BMP_pressure;BME280_temperature;BME280_humidity;BME280_pressure;Samples;Min_cycle;Max_cycle;Signal;HPM_P1;HPM_P2
2022/05/21 00:00:26;;;;;;;9.77;6.70;;;15.20;94.40;;;;;;4996429;28;20475;-71
2022/05/21 00:02:54;;;;;;;6.93;5.30;;;15.20;94.30;;;;;;4996299;28;20848;-71
2022/05/21 00:05:23;;;;;;;9.33;5.97;;;15.10;94.30;;;;;;4996437;28;20864;-71
2022/05/21 00:07:51;;;;;;;8.63;6.20;;;15.10;94.30;;;;;;4996359;28;20471;-71
2022/05/21 00:10:18;;;;;;;8.40;6.47;;;15.00;94.40;;;;;;4996349;28;20459;-71
2022/05/21 00:12:46;;;;;;;9.20;6.87;;;15.00;94.60;;;;;;4996538;28;20448;-71
2022/05/21 00:15:17;;;;;;;10.23;6.90;;;15.00;94.70;;;;;;4996161;28;20465;-71
2022/05/21 00:17:43;;;;;;;6.20;5.60;;;15.00;94.70;;;;;;4996371;28;20473;-71
2022/05/21 00:20:47;;;;;;;7.17;5.93;;;14.90;94.50;;;;;;4996210;28;20459;-71
2022/05/21 00:22:59;;;;;;;8.67;6.57;;;14.90;94.70;;;;;;4995467;28;20570;-71
2022/05/21 00:25:26;;;;;;;7.00;6.20;;;14.90;95.00;;;;;;4996029;28;20452;-71
2022/05/21 00:27:53;;;;;;;6.97;6.17;;;14.90;94.70;;;;;;4995940;28;20471;-71
2022/05/21 00:30:21;;;;;;;6.60;5.43;;;14.80;94.90;;;;;;4995995;28;20455;-71
2022/05/21 00:32:48;;;;;;;10.20;6.53;;;14.80;94.90;;;;;;4995898;28;20448;-71
2022/05/21 00:35:14;;;;;;;7.40;6.27;;;14.90;94.90;;;;;;4995816;28;20452;-72
2022/05/21 00:37:41;;;;;;;6.73;5.60;;;14.80;95.00;;;;;;4995364;28;20515;-71
2022/05/21 00:40:09;;;;;;;7.20;5.50;;;14.80;95.10;;;;;;4995419;28;20856;-71
2022/05/21 00:42:35;;;;;;;9.97;6.60;;;14.80;95.20;;;;;;4995648;28;20623;-72
2022/05/21 00:45:03;;;;;;;11.30;7.00;;;14.80;95.30;;;;;;4995663;28;20502;-72
2022/05/21 00:47:31;;;;;;;9.53;7.77;;;14.70;95.40;;;;;;4995487;28;20483;-71
2022/05/21 00:49:58;;;;;;;9.63;6.90;;;14.80;95.50;;;;;;4995576;28;20449;-71
2022/05/21 00:52:28;;;;;;;9.20;8.03;;;14.70;95.60;;;;;;4995474;28;20440;-71
2022/05/21 00:54:58;;;;;;;8.20;7.30;;;14.70;95.70;;;;;;4995117;28;20433;-71
2022/05/21 00:57:28;;;;;;;19.47;10.23;;;14.70;95.90;;;;;;4995326;28;20479;-71
2022/05/21 00:59:57;;;;;;;9.80;8.73;;;14.70;96.00;;;;;;4994849;28;20452;-71
2022/05/21 01:02:29;;;;;;;12.70;8.83;;;14.70;96.00;;;;;;4995420;28;20443;-70
2022/05/21 01:05:02;;;;;;;10.53;8.60;;;14.60;96.00;;;;;;4995294;28;20471;-70
2022/05/21 01:07:29;;;;;;;11.37;8.00;;;14.60;96.20;;;;;;4995250;28;20542;-70
2022/05/21 01:09:58;;;;;;;12.47;8.57;;;14.60;96.30;;;;;;4995565;28;20459;-70
2022/05/21 01:12:32;;;;;;;10.27;7.53;;;14.60;96.10;;;;;;4995089;28;20954;-70
2022/05/21 01:15:04;;;;;;;10.77;7.50;;;14.70;96.10;;;;;;4995936;28;20490;-70
2022/05/21 01:17:30;;;;;;;7.40;6.70;;;14.70;95.80;;;;;;4995134;28;20468;-70
2022/05/21 01:20:02;;;;;;;11.43;6.30;;;14.70;95.80;;;;;;4995035;28;20452;-70
2022/05/21 01:22:31;;;;;;;9.70;6.90;;;14.70;95.60;;;;;;4994871;28;20789;-70
2022/05/21 01:24:58;;;;;;;12.87;6.90;;;14.70;95.50;;;;;;4994849;28;20484;-69
2022/05/21 01:27:27;;;;;;;9.20;7.37;;;14.70;95.80;;;;;;4994696;28;20472;-69
2022/05/21 01:29:54;;;;;;;12.30;7.20;;;14.70;95.70;;;;;;4994843;28;20448;-69
2022/05/21 01:32:21;;;;;;;9.37;7.10;;;14.70;95.50;;;;;;4994468;28;20452;-69
2022/05/21 01:34:48;;;;;;;8.60;6.67;;;14.70;95.50;;;;;;4994684;28;20453;-69
2022/05/21 01:37:15;;;;;;;10.10;7.20;;;14.70;95.50;;;;;;4994616;28;20479;-69
2022/05/21 01:39:43;;;;;;;7.70;5.70;;;14.70;95.60;;;;;;4994589;28;20448;-69
2022/05/21 01:42:10;;;;;;;10.70;6.70;;;14.60;95.60;;;;;;4994655;28;20801;-69
2022/05/21 01:44:38;;;;;;;12.73;7.00;;;14.60;95.50;;;;;;4994532;28;20472;-69
2022/05/21 01:47:06;;;;;;;16.30;6.50;;;14.70;95.30;;;;;;4994522;28;20807;-69
2022/05/21 01:49:33;;;;;;;8.33;5.57;;;14.60;95.40;;;;;;4994284;28;20854;-69
2022/05/21 01:52:00;;;;;;;8.43;6.03;;;14.60;95.00;;;;;;4994408;28;20448;-69
2022/05/21 01:54:27;;;;;;;7.23;5.13;;;14.70;94.90;;;;;;4994433;28;20499;-69
2022/05/21 01:56:55;;;;;;;11.53;5.17;;;14.70;94.80;;;;;;4994067;28;20972;-69
2022/05/21 01:59:22;;;;;;;6.67;4.07;;;14.70;94.80;;;;;;4994205;28;20474;-69
2022/05/21 02:01:48;;;;;;;5.50;4.00;;;14.70;94.60;;;;;;4994090;28;20458;-69
2022/05/21 02:04:16;;;;;;;8.60;4.83;;;14.70;94.50;;;;;;4993941;28;21024;-70
2022/05/21 02:06:43;;;;;;;10.53;4.37;;;14.60;94.60;;;;;;4994437;28;20524;-69
2022/05/21 02:09:10;;;;;;;6.50;3.80;;;14.50;94.50;;;;;;4994028;28;21024;-70
2022/05/21 02:11:37;;;;;;;4.60;3.50;;;14.50;94.40;;;;;;4993978;28;20892;-67
2022/05/21 02:14:05;;;;;;;5.33;3.60;;;14.50;94.50;;;;;;4994321;28;20436;-67
2022/05/21 02:16:34;;;;;;;7.73;3.63;;;14.50;94.50;;;;;;4994680;28;20452;-67
2022/05/21 02:19:02;;;;;;;5.47;3.00;;;14.40;94.60;;;;;;4994450;28;20478;-68
2022/05/21 02:21:29;;;;;;;7.47;3.43;;;14.40;94.60;;;;;;4994599;28;20452;-68
2022/05/21 02:23:55;;;;;;;7.20;3.10;;;14.50;94.60;;;;;;4994686;28;20914;-71
2022/05/21 02:26:23;;;;;;;6.43;3.40;;;14.40;94.50;;;;;;4995313;28;20455;-71
2022/05/21 02:28:49;;;;;;;6.57;3.50;;;14.40;94.60;;;;;;4995528;28;20523;-70
2022/05/21 02:31:18;;;;;;;6.50;3.43;;;14.40;94.50;;;;;;4996011;28;20448;-70
2022/05/21 02:33:45;;;;;;;4.73;3.27;;;14.40;94.80;;;;;;4996264;28;20440;-70
2022/05/21 02:36:12;;;;;;;5.73;3.10;;;14.40;94.60;;;;;;4997225;28;20459;-70
2022/05/21 02:41:24;;;;;;;5.07;2.87;;;14.30;94.60;;;;;;4996119;28;20447;-71
2022/05/21 02:43:51;;;;;;;6.37;3.50;;;14.30;94.40;;;;;;4994616;28;20992;-71
2022/05/21 02:46:19;;;;;;;6.10;2.80;;;14.30;94.40;;;;;;4993923;28;20448;-71
2022/05/21 02:48:45;;;;;;;7.80;3.40;;;14.40;94.50;;;;;;4993855;28;20472;-71
2022/05/21 02:51:13;;;;;;;6.23;2.50;;;14.40;94.60;;;;;;4993594;28;20949;-71
2022/05/21 02:53:40;;;;;;;3.53;2.77;;;14.40;94.40;;;;;;4993861;28;20451;-70
2022/05/21 02:56:08;;;;;;;4.20;2.43;;;14.30;94.60;;;;;;4993794;28;20449;-70
2022/05/21 02:58:36;;;;;;;5.57;2.60;;;14.30;94.90;;;;;;4993729;28;20475;-70
2022/05/21 03:01:03;;;;;;;7.67;3.10;;;14.30;94.80;;;;;;5006000;28;20486;-71
2022/05/21 03:03:31;;;;;;;8.63;3.40;;;14.30;94.70;;;;;;5013291;28;20443;-71
2022/05/21 03:05:59;;;;;;;5.23;2.87;;;14.30;95.00;;;;;;5013244;28;20447;-71
2022/05/21 03:11:10;;;;;;;4.57;2.77;;;14.40;95.00;;;;;;5013406;28;20407;-70
2022/05/21 03:13:38;;;;;;;8.50;2.77;;;14.30;95.00;;;;;;5013235;28;20450;-70
2022/05/21 03:16:05;;;;;;;5.47;2.17;;;14.30;94.90;;;;;;5013269;28;20447;-70
2022/05/21 03:18:33;;;;;;;10.17;3.03;;;14.30;94.80;;;;;;5013092;28;20471;-70
2022/05/21 03:21:00;;;;;;;7.77;3.27;;;14.30;94.70;;;;;;5013201;28;20447;-71
2022/05/21 03:23:27;;;;;;;4.33;2.63;;;14.40;94.90;;;;;;5015395;28;20446;-71
2022/05/21 03:25:55;;;;;;;5.53;4.20;;;14.40;95.30;;;;;;5016744;28;20849;-71
2022/05/21 03:28:22;;;;;;;8.27;2.20;;;14.40;95.20;;;;;;5016575;28;20471;-70
2022/05/21 03:30:49;;;;;;;6.03;2.30;;;14.40;94.90;;;;;;5016655;28;20451;-70
2022/05/21 03:33:16;;;;;;;5.63;3.17;;;14.40;95.10;;;;;;5016552;28;20451;-70
2022/05/21 03:35:44;;;;;;;7.07;2.70;;;14.40;95.00;;;;;;5016532;28;20447;-70
2022/05/21 03:38:12;;;;;;;5.40;2.10;;;14.30;95.00;;;;;;5016516;28;20479;-70
2022/05/21 03:40:39;;;;;;;7.57;2.60;;;14.30;95.40;;;;;;5016459;28;20458;-70
2022/05/21 03:43:06;;;;;;;4.90;3.10;;;14.30;95.30;;;;;;5016671;28;20458;-70
2022/05/21 03:45:32;;;;;;;8.50;3.43;;;14.30;95.20;;;;;;5016270;28;20490;-71
2022/05/21 03:47:59;;;;;;;7.40;3.10;;;14.30;95.30;;;;;;5016283;28;20464;-71
2022/05/21 03:50:28;;;;;;;7.10;3.27;;;14.30;95.00;;;;;;5016309;28;20447;-70
2022/05/21 03:52:56;;;;;;;6.73;2.90;;;14.30;95.60;;;;;;5016248;28;20479;-71
2022/05/21 03:55:23;;;;;;;7.60;2.90;;;14.40;95.50;;;;;;5016220;28;20439;-69
2022/05/21 03:57:49;;;;;;;6.00;2.80;;;14.40;95.70;;;;;;5016223;28;20478;-70
2022/05/21 04:00:18;;;;;;;5.43;2.60;;;14.40;95.10;;;;;;5016167;28;20463;-70
2022/05/21 04:02:46;;;;;;;6.70;2.67;;;14.40;95.40;;;;;;5016161;28;20442;-71
2022/05/21 04:05:13;;;;;;;4.97;3.03;;;14.40;95.10;;;;;;5015952;28;20490;-71
2022/05/21 04:07:41;;;;;;;7.20;3.37;;;14.40;95.10;;;;;;5015647;28;20525;-71
2022/05/21 04:10:11;;;;;;;5.70;3.03;;;14.40;95.20;;;;;;5015960;28;20451;-70
2022/05/21 04:12:38;;;;;;;6.60;2.40;;;14.50;94.90;;;;;;5015569;28;20443;-71
2022/05/21 04:15:06;;;;;;;8.30;2.40;;;14.50;95.10;;;;;;5015769;28;20470;-70
2022/05/21 04:17:33;;;;;;;10.60;3.07;;;14.50;94.80;;;;;;5015913;28;20452;-71
2022/05/21 04:19:59;;;;;;;6.60;3.30;;;14.50;95.00;;;;;;5015780;28;20454;-71
2022/05/21 04:22:26;;;;;;;5.07;2.70;;;14.50;95.10;;;;;;5015914;28;20448;-71
2022/05/21 04:24:53;;;;;;;5.67;3.00;;;14.50;94.90;;;;;;5015700;28;20483;-71
2022/05/21 04:27:21;;;;;;;6.60;3.30;;;14.50;94.90;;;;;;5015534;28;20479;-70
2022/05/21 04:29:48;;;;;;;9.80;3.40;;;14.50;94.60;;;;;;5015238;28;20439;-70
2022/05/21 04:32:14;;;;;;;12.80;3.30;;;14.50;94.80;;;;;;5015482;28;20463;-71
2022/05/21 04:34:41;;;;;;;7.90;3.40;;;14.50;94.90;;;;;;5014722;28;20444;-71
2022/05/21 04:37:08;;;;;;;5.20;3.23;;;14.40;94.60;;;;;;5015249;28;20451;-71
2022/05/21 04:39:34;;;;;;;8.73;3.60;;;14.40;94.90;;;;;;5015210;28;20462;-70
2022/05/21 04:42:01;;;;;;;6.07;3.30;;;14.50;95.30;;;;;;5015311;28;20459;-70
2022/05/21 04:44:34;;;;;;;7.97;3.30;;;14.50;94.70;;;;;;5015100;28;20501;-71
2022/05/21 04:47:02;;;;;;;5.87;2.97;;;14.50;94.80;;;;;;5014878;28;20523;-70
2022/05/21 04:49:29;;;;;;;9.00;3.27;;;14.60;94.70;;;;;;5014908;28;20916;-69
2022/05/21 04:51:56;;;;;;;4.63;3.20;;;14.60;94.50;;;;;;5015034;28;20450;-69
2022/05/21 04:54:23;;;;;;;8.30;3.40;;;14.60;94.40;;;;;;5015432;28;20439;-69
2022/05/21 04:56:49;;;;;;;7.50;3.67;;;14.60;94.40;;;;;;5015019;28;20501;-69
2022/05/21 04:59:16;;;;;;;7.57;3.57;;;14.70;94.50;;;;;;5014914;28;20475;-69
2022/05/21 05:01:44;;;;;;;5.33;2.90;;;14.60;94.20;;;;;;5014580;28;20838;-69
2022/05/21 05:04:11;;;;;;;9.50;3.70;;;14.60;94.40;;;;;;5014772;28;20454;-69
2022/05/21 05:06:38;;;;;;;6.13;3.47;;;14.60;94.40;;;;;;5014781;28;20454;-69
2022/05/21 05:09:06;;;;;;;7.20;2.97;;;14.50;94.40;;;;;;5014890;28;20558;-69
2022/05/21 05:11:33;;;;;;;8.87;3.40;;;14.60;94.80;;;;;;5014848;28;20861;-69
2022/05/21 05:13:59;;;;;;;7.57;3.30;;;14.60;94.40;;;;;;5014684;28;20455;-69
2022/05/21 05:16:27;;;;;;;7.67;3.57;;;14.60;94.00;;;;;;5014299;28;20829;-69
2022/05/21 05:18:55;;;;;;;7.93;3.17;;;14.70;94.50;;;;;;5014553;28;20479;-69
2022/05/21 05:21:22;;;;;;;6.70;2.70;;;14.70;94.20;;;;;;5014592;28;20447;-69
2022/05/21 05:23:48;;;;;;;5.17;2.73;;;14.70;93.80;;;;;;5014536;28;20450;-69
2022/05/21 05:26:16;;;;;;;6.43;3.07;;;14.70;93.80;;;;;;5014422;28;20487;-69
2022/05/21 05:28:42;;;;;;;8.13;3.17;;;14.70;93.90;;;;;;5014397;28;20507;-69
2022/05/21 05:31:09;;;;;;;7.03;2.90;;;14.70;94.20;;;;;;5014497;28;20810;-70
2022/05/21 05:33:36;;;;;;;5.27;3.10;;;14.70;93.90;;;;;;5014373;28;20565;-69
2022/05/21 05:36:04;;;;;;;5.67;2.60;;;14.70;94.00;;;;;;5014321;28;20444;-69
2022/05/21 05:38:31;;;;;;;5.93;2.93;;;14.70;94.20;;;;;;5014021;28;20467;-69
2022/05/21 05:40:58;;;;;;;7.70;3.53;;;14.70;93.60;;;;;;5014304;28;20460;-69
2022/05/21 05:43:25;;;;;;;6.23;3.43;;;14.70;93.70;;;;;;5014226;28;20448;-68
2022/05/21 05:45:53;;;;;;;9.00;3.20;;;14.70;94.00;;;;;;5013799;28;20479;-69
2022/05/21 05:48:20;;;;;;;8.50;3.70;;;14.80;94.00;;;;;;5014167;28;20553;-69
2022/05/21 05:50:47;;;;;;;9.23;3.87;;;14.80;94.10;;;;;;5014476;28;20431;-70
2022/05/21 05:53:15;;;;;;;5.30;3.90;;;14.80;94.10;;;;;;5013830;28;20980;-67
2022/05/21 05:55:43;;;;;;;12.40;4.30;;;14.80;94.60;;;;;;5014341;28;20454;-69
2022/05/21 06:00:55;;;;;;;14.40;4.70;;;14.80;94.20;;;;;;5002079;28;20467;-69
2022/05/21 06:03:22;;;;;;;5.87;4.43;;;14.80;94.40;;;;;;4994564;28;20459;-70
2022/05/21 06:05:50;;;;;;;10.63;4.23;;;14.80;94.30;;;;;;4994989;28;20477;-69
2022/05/21 06:08:18;;;;;;;14.03;5.27;;;14.80;94.50;;;;;;4995143;28;21069;-68
2022/05/21 06:10:48;;;;;;;9.00;4.57;;;14.90;94.50;;;;;;4995896;28;20432;-67
2022/05/21 06:13:15;;;;;;;7.53;4.50;;;15.00;94.40;;;;;;4995081;28;20495;-70
2022/05/21 06:15:42;;;;;;;10.00;4.90;;;15.00;94.30;;;;;;4995353;28;20476;-70
2022/05/21 06:18:12;;;;;;;14.87;5.50;;;15.00;94.30;;;;;;4996358;28;20481;-69
2022/05/21 06:20:39;;;;;;;6.83;5.20;;;15.00;94.20;;;;;;4996116;28;20446;-68
2022/05/21 06:23:06;;;;;;;8.10;4.57;;;15.10;94.10;;;;;;4995595;28;20452;-68
2022/05/21 06:25:34;;;;;;;8.70;4.50;;;15.10;93.90;;;;;;4995171;28;20483;-68
2022/05/21 06:28:03;;;;;;;11.67;6.37;;;15.10;93.90;;;;;;4993691;28;20468;-68
2022/05/21 06:30:31;;;;;;;11.93;5.33;;;15.20;93.90;;;;;;4994097;28;20464;-68
2022/05/21 06:32:58;;;;;;;13.90;5.33;;;15.20;93.60;;;;;;4993756;28;20934;-68
2022/05/21 06:35:26;;;;;;;13.00;4.90;;;15.30;94.10;;;;;;4993776;28;20444;-68
2022/05/21 06:37:53;;;;;;;7.93;5.47;;;15.30;94.00;;;;;;4993936;28;20551;-68
2022/05/21 06:40:20;;;;;;;9.10;5.97;;;15.30;93.80;;;;;;4993960;28;20455;-68
2022/05/21 06:42:48;;;;;;;9.47;5.37;;;15.30;93.80;;;;;;4993947;28;20452;-68
2022/05/21 06:45:15;;;;;;;10.47;5.70;;;15.40;93.60;;;;;;4993887;28;20483;-68
2022/05/21 06:47:42;;;;;;;13.27;5.43;;;15.40;93.60;;;;;;4993756;28;20468;-68
2022/05/21 06:50:11;;;;;;;11.83;6.93;;;15.50;93.70;;;;;;4993605;28;20845;-68
2022/05/21 06:52:39;;;;;;;11.07;5.70;;;15.50;93.60;;;;;;4993883;28;20452;-68
2022/05/21 06:55:06;;;;;;;13.20;6.07;;;15.60;93.50;;;;;;4993929;28;20444;-68
2022/05/21 06:57:33;;;;;;;19.30;7.37;;;15.60;93.50;;;;;;4994811;28;20482;-68
2022/05/21 07:00:01;;;;;;;13.07;6.20;;;15.60;92.80;;;;;;4997217;28;20452;-68
2022/05/21 07:02:28;;;;;;;9.80;6.40;;;15.50;92.60;;;;;;4997268;28;20899;-68
2022/05/21 07:07:44;;;;;;;11.03;6.60;;;15.40;93.00;;;;;;4997243;28;20590;-68
2022/05/21 07:10:17;;;;;;;10.60;6.00;;;15.30;93.20;;;;;;4997497;28;20439;-68
2022/05/21 07:12:44;;;;;;;15.77;5.73;;;15.30;93.70;;;;;;4997243;28;20961;-68
2022/05/21 07:15:13;;;;;;;13.63;6.70;;;15.40;93.90;;;;;;4997329;28;20817;-68
2022/05/21 07:17:40;;;;;;;11.33;6.10;;;15.40;93.40;;;;;;4996814;28;20819;-69
2022/05/21 07:20:10;;;;;;;10.40;6.43;;;15.50;93.80;;;;;;4997301;28;20447;-69
2022/05/21 07:22:41;;;;;;;10.27;5.37;;;15.60;93.40;;;;;;4996924;28;20514;-69
2022/05/21 07:25:08;;;;;;;16.10;7.13;;;15.70;93.10;;;;;;4997138;28;20499;-69
2022/05/21 07:27:35;;;;;;;13.43;6.10;;;15.80;93.30;;;;;;4997099;28;20480;-69
2022/05/21 07:30:02;;;;;;;12.07;5.27;;;15.70;92.50;;;;;;4997155;28;20456;-69
2022/05/21 07:32:30;;;;;;;13.37;6.00;;;15.80;92.20;;;;;;5005751;28;20471;-69
2022/05/21 07:34:58;;;;;;;11.87;5.53;;;15.90;92.40;;;;;;5016606;28;20462;-69
2022/05/21 07:37:25;;;;;;;12.93;5.37;;;15.90;92.10;;;;;;5016642;28;20571;-69
2022/05/21 07:39:52;;;;;;;12.13;5.60;;;16.00;92.40;;;;;;5016725;28;20443;-69
2022/05/21 07:42:19;;;;;;;11.07;5.10;;;16.10;92.00;;;;;;5016620;28;20451;-68
2022/05/21 07:44:45;;;;;;;9.33;4.60;;;16.10;91.90;;;;;;5016538;28;20455;-68
2022/05/21 07:47:12;;;;;;;11.57;5.63;;;16.20;90.90;;;;;;5016418;28;20454;-68
2022/05/21 07:49:41;;;;;;;10.80;4.87;;;16.20;90.30;;;;;;5016465;28;20482;-68
2022/05/21 07:52:08;;;;;;;11.23;5.17;;;16.30;91.20;;;;;;5016142;28;20464;-68
2022/05/21 07:54:35;;;;;;;16.03;5.03;;;16.40;91.20;;;;;;5016129;28;20802;-68
2022/05/21 07:57:02;;;;;;;7.97;4.90;;;16.60;90.80;;;;;;5016205;28;20816;-68
2022/05/21 07:59:30;;;;;;;10.43;5.40;;;16.70;90.60;;;;;;5016041;28;20451;-68
2022/05/21 08:01:57;;;;;;;10.47;4.67;;;16.80;90.10;;;;;;5015817;28;20494;-68
2022/05/21 08:04:23;;;;;;;10.63;5.13;;;16.90;90.20;;;;;;5016116;28;20435;-69
2022/05/21 08:06:52;;;;;;;12.30;5.00;;;16.90;88.40;;;;;;5016170;28;20486;-69
2022/05/21 08:09:19;;;;;;;7.50;3.87;;;16.90;87.20;;;;;;5014808;28;20471;-68
2022/05/21 08:11:46;;;;;;;14.03;4.90;;;16.80;87.70;;;;;;5016777;28;20475;-67
2022/05/21 08:14:12;;;;;;;12.03;4.83;;;16.80;89.20;;;;;;5015842;28;20536;-66
2022/05/21 08:16:39;;;;;;;11.13;5.30;;;16.90;89.50;;;;;;5015794;28;20443;-66
2022/05/21 08:19:06;;;;;;;12.83;5.77;;;17.10;89.40;;;;;;5015427;28;20483;-67
2022/05/21 08:21:33;;;;;;;8.13;4.77;;;17.20;89.10;;;;;;5015690;28;20474;-68
2022/05/21 08:26:57;;;;;;;8.03;4.80;;;17.40;87.40;;;;;;5015598;28;20470;-68
2022/05/21 08:29:25;;;;;;;11.40;4.37;;;17.50;86.30;;;;;;5015422;28;20479;-67
2022/05/21 08:31:51;;;;;;;12.27;6.47;;;17.50;85.50;;;;;;5015495;28;20460;-69
2022/05/21 08:34:18;;;;;;;11.00;4.50;;;17.60;86.50;;;;;;5015400;28;20454;-66
2022/05/21 08:36:45;;;;;;;10.27;4.50;;;17.60;85.50;;;;;;5015148;28;20824;-65
2022/05/21 08:39:13;;;;;;;8.23;3.57;;;17.60;85.30;;;;;;5015396;28;20482;-65
2022/05/21 08:41:46;;;;;;;8.00;3.57;;;17.60;83.20;;;;;;5015062;28;20900;-65
2022/05/21 08:44:19;;;;;;;9.60;4.13;;;17.60;83.20;;;;;;5016161;28;20490;-65
2022/05/21 08:47:01;;;;;;;9.70;4.40;;;17.50;84.60;;;;;;5015156;28;20467;-65
2022/05/21 08:49:37;;;;;;;9.20;4.00;;;17.70;84.70;;;;;;5015263;28;20777;-65
2022/05/21 08:52:14;;;;;;;5.10;3.37;;;17.90;83.40;;;;;;5014954;28;20446;-65
2022/05/21 08:54:45;;;;;;;14.20;4.87;;;18.20;83.00;;;;;;5015115;28;20467;-66
2022/05/21 08:57:16;;;;;;;6.00;4.00;;;18.60;82.10;;;;;;5015112;28;20435;-66
2022/05/21 08:59:47;;;;;;;11.13;3.50;;;18.80;79.80;;;;;;5012173;28;20482;-67
2022/05/21 09:02:18;;;;;;;8.07;3.33;;;19.20;79.30;;;;;;4995570;28;20476;-66
2022/05/21 09:04:44;;;;;;;6.43;3.43;;;19.20;76.30;;;;;;4995325;28;20512;-66
2022/05/21 09:07:18;;;;;;;8.63;4.10;;;19.30;78.20;;;;;;4994767;28;21013;-66
2022/05/21 09:10:02;;;;;;;6.27;2.60;;;19.50;75.60;;;;;;4995366;28;20428;-66
2022/05/21 09:12:39;;;;;;;10.67;3.10;;;19.40;73.60;;;;;;4995269;28;20440;-66
2022/05/21 09:15:08;;;;;;;5.70;2.40;;;19.30;73.10;;;;;;4995138;28;20436;-66
2022/05/21 09:17:42;;;;;;;5.63;3.20;;;19.20;72.60;;;;;;4994955;28;20472;-66
2022/05/21 09:20:18;;;;;;;8.37;3.20;;;19.30;72.60;;;;;;4994881;28;20475;-66
2022/05/21 09:22:54;;;;;;;7.00;2.80;;;19.50;74.10;;;;;;4995133;28;20863;-66
2022/05/21 09:25:26;;;;;;;7.23;3.43;;;19.60;73.20;;;;;;4994922;28;20433;-66
2022/05/21 09:28:02;;;;;;;8.07;3.53;;;19.80;69.90;;;;;;4994603;28;21001;-66
2022/05/21 09:30:32;;;;;;;8.50;3.07;;;19.90;68.40;;;;;;4995042;28;20440;-68
2022/05/21 09:33:00;;;;;;;5.27;3.27;;;20.00;70.50;;;;;;4994966;28;20455;-69
2022/05/21 09:35:29;;;;;;;10.47;3.20;;;20.10;70.30;;;;;;4994657;28;20942;-67
2022/05/21 09:37:57;;;;;;;7.10;3.37;;;20.40;69.70;;;;;;4994823;28;20475;-67
2022/05/21 09:40:31;;;;;;;7.03;2.83;;;20.60;68.40;;;;;;4995008;28;20455;-68
2022/05/21 09:45:44;;;;;;;8.80;3.43;;;21.00;69.00;;;;;;4995231;28;20463;-68
2022/05/21 09:48:18;;;;;;;5.07;3.50;;;21.20;65.00;;;;;;4995123;28;20484;-67
2022/05/21 09:50:49;;;;;;;5.30;3.30;;;21.10;67.00;;;;;;4995523;28;20468;-67
2022/05/21 09:53:29;;;;;;;8.50;3.60;;;21.00;64.20;;;;;;4995215;28;20444;-67
2022/05/21 09:56:04;;;;;;;5.17;3.03;;;21.00;65.90;;;;;;4995030;28;20902;-68
2022/05/21 09:58:35;;;;;;;9.07;3.20;;;20.90;62.80;;;;;;4995303;28;20494;-67
2022/05/21 10:01:01;;;;;;;7.63;3.97;;;20.80;64.50;;;;;;4994060;28;20464;-68
2022/05/21 10:03:40;;;;;;;8.90;3.53;;;20.90;66.40;;;;;;4994633;28;20447;-68
2022/05/21 10:06:27;;;;;;;6.30;3.70;;;21.00;63.20;;;;;;4994413;28;20480;-68
2022/05/21 10:11:53;;;;;;;9.13;4.10;;;21.40;63.70;;;;;;4994341;28;20758;-68
2022/05/21 10:14:24;;;;;;;7.03;2.90;;;21.40;60.50;;;;;;4994528;28;20440;-68
2022/05/21 10:16:56;;;;;;;7.97;3.77;;;21.40;59.40;;;;;;4994841;28;20468;-67
2022/05/21 10:19:33;;;;;;;10.83;4.00;;;21.20;62.00;;;;;;4994095;28;20479;-67
2022/05/21 10:22:32;;;;;;;8.30;3.53;;;21.00;62.10;;;;;;4993803;28;20921;-68
2022/05/21 10:25:05;;;;;;;6.33;3.30;;;20.90;61.80;;;;;;4993787;28;20456;-68
2022/05/21 10:27:56;;;;;;;6.67;3.30;;;21.10;59.50;;;;;;4994208;28;20515;-66
2022/05/21 10:30:30;;;;;;;9.10;4.20;;;21.50;59.80;;;;;;4993804;28;20964;-66
2022/05/21 10:33:18;;;;;;;9.50;3.77;;;21.80;59.00;;;;;;4995860;28;20934;-66
2022/05/21 10:35:59;;;;;;;6.83;2.93;;;21.80;57.80;;;;;;4997723;28;20440;-66
2022/05/21 10:38:43;;;;;;;6.33;3.30;;;21.60;59.40;;;;;;4997691;28;20977;-66
2022/05/21 10:41:19;;;;;;;6.27;3.90;;;21.10;60.00;;;;;;4997623;28;20439;-67
2022/05/21 10:44:03;;;;;;;10.80;4.33;;;20.70;59.60;;;;;;4998197;28;20522;-66
2022/05/21 10:46:40;;;;;;;8.07;3.70;;;20.20;61.00;;;;;;4997919;28;20530;-66
2022/05/21 10:49:34;;;;;;;10.60;5.10;;;19.90;63.50;;;;;;4997746;28;20483;-68
2022/05/21 10:52:03;;;;;;;10.50;4.13;;;19.80;65.60;;;;;;4997844;28;20432;-66
2022/05/21 10:54:41;;;;;;;6.97;3.20;;;20.00;65.20;;;;;;4997570;28;20550;-67
2022/05/21 10:57:24;;;;;;;5.70;3.50;;;20.50;62.70;;;;;;5017213;28;20446;-66
2022/05/21 11:00:02;;;;;;;6.03;3.03;;;20.90;61.50;;;;;;5017340;28;20427;-66
2022/05/21 11:02:50;;;;;;;6.40;3.33;;;21.20;60.80;;;;;;5017227;28;20438;-66
2022/05/21 11:05:40;;;;;;;9.27;2.83;;;21.50;59.40;;;;;;5016919;28;20439;-67
2022/05/21 11:08:13;;;;;;;7.83;3.30;;;22.00;57.10;;;;;;5016869;28;20961;-67
2022/05/21 11:10:48;;;;;;;7.40;2.90;;;22.40;56.20;;;;;;5017305;28;20427;-67
2022/05/21 11:13:20;;;;;;;6.13;2.83;;;22.50;56.50;;;;;;5017125;28;20443;-67
2022/05/21 11:15:52;;;;;;;6.90;3.10;;;22.70;52.60;;;;;;5014824;28;20463;-67
2022/05/21 11:18:33;;;;;;;6.93;3.17;;;22.90;53.20;;;;;;5016855;28;20814;-67
2022/05/21 11:21:05;;;;;;;10.43;2.97;;;23.30;52.70;;;;;;5016540;28;20439;-67
2022/05/21 11:23:38;;;;;;;10.23;3.00;;;23.90;52.10;;;;;;5017033;28;20439;-66
2022/05/21 11:26:12;;;;;;;6.20;2.80;;;24.70;50.30;;;;;;5016704;28;20467;-67
2022/05/21 11:28:44;;;;;;;6.90;3.03;;;25.60;48.20;;;;;;5016724;28;20470;-67
2022/05/21 11:37:19;;;;;;;10.93;3.17;;;26.00;44.70;;;;;;5016597;28;20469;-67
2022/05/21 11:39:40;;;;;;;9.23;3.57;;;25.50;44.00;;;;;;5016523;28;20960;-67
2022/05/21 11:42:14;;;;;;;6.93;3.20;;;24.90;45.20;;;;;;5016567;28;20447;-66
2022/05/21 11:44:59;;;;;;;7.50;3.20;;;24.10;45.80;;;;;;5016271;28;20463;-66
2022/05/21 11:47:45;;;;;;;6.65;3.30;;;23.50;47.10;;;;;;5015602;28;20851;-66
2022/05/21 11:50:27;;;;;;;6.83;3.10;;;23.60;47.30;;;;;;5016536;28;20185;-66
2022/05/21 11:53:10;;;;;;;6.53;3.10;;;24.00;49.50;;;;;;5015630;28;20451;-66
2022/05/21 11:55:56;;;;;;;7.17;3.27;;;24.40;50.30;;;;;;5016312;28;20435;-66
2022/05/21 11:58:27;;;;;;;6.07;3.40;;;25.60;49.00;;;;;;5015190;28;20439;-67
2022/05/21 12:00:54;;;;;;;8.67;3.63;;;26.90;43.70;;;;;;5003487;28;20213;-67
2022/05/21 12:03:25;;;;;;;5.90;3.10;;;27.70;41.50;;;;;;4996442;28;20484;-67
2022/05/21 12:06:32;;;;;;;5.80;3.50;;;28.30;39.00;;;;;;4997464;28;20507;-67
2022/05/21 12:09:21;;;;;;;7.67;2.97;;;28.30;38.10;;;;;;4996602;28;20479;-67
2022/05/21 12:11:48;;;;;;;8.37;2.90;;;27.90;39.20;;;;;;4996465;28;20428;-67
2022/05/21 12:14:22;;;;;;;4.87;2.50;;;28.00;38.00;;;;;;4996009;28;20455;-67
2022/05/21 12:16:52;;;;;;;4.00;2.73;;;28.10;36.90;;;;;;4996409;28;20425;-67
2022/05/21 12:20:05;;;;;;;6.63;2.87;;;27.70;36.90;;;;;;4996189;28;20878;-67
2022/05/21 12:22:44;;;;;;;7.70;2.73;;;27.10;39.20;;;;;;4996746;28;20456;-67
2022/05/21 12:25:14;;;;;;;9.17;3.50;;;27.20;39.60;;;;;;4996234;28;20432;-67
2022/05/21 12:28:00;;;;;;;7.20;3.07;;;27.00;38.50;;;;;;4995985;28;20515;-67
2022/05/21 12:30:30;;;;;;;4.90;3.47;;;26.30;40.30;;;;;;4996128;28;20437;-67
2022/05/21 12:32:56;;;;;;;8.63;3.30;;;25.40;41.60;;;;;;4995963;28;20484;-67
2022/05/21 12:35:44;;;;;;;7.90;2.63;;;24.70;42.60;;;;;;4995817;28;20451;-67
2022/05/21 12:38:25;;;;;;;5.03;2.90;;;24.30;45.00;;;;;;4996037;28;20564;-67
2022/05/21 12:40:59;;;;;;;4.50;3.03;;;24.40;45.70;;;;;;4995903;28;20472;-67
2022/05/21 12:43:26;;;;;;;12.23;3.30;;;24.60;43.80;;;;;;4996020;28;20464;-67
2022/05/21 12:45:54;;;;;;;4.17;2.80;;;24.80;43.50;;;;;;4995744;28;20452;-66
2022/05/21 12:48:24;;;;;;;6.30;3.17;;;25.20;43.00;;;;;;4995336;28;20869;-65
2022/05/21 12:50:54;;;;;;;6.37;2.80;;;26.10;43.30;;;;;;4995693;28;20472;-66
2022/05/21 12:53:27;;;;;;;6.30;2.37;;;26.50;39.60;;;;;;4996502;28;20451;-65
2022/05/21 12:56:03;;;;;;;5.90;2.90;;;26.60;39.50;;;;;;4994826;28;20823;-65
2022/05/21 12:58:31;;;;;;;6.30;3.00;;;27.30;41.20;;;;;;4995207;28;20505;-66
2022/05/21 13:01:00;;;;;;;9.37;3.53;;;27.70;37.90;;;;;;4995446;28;20464;-67
2022/05/21 13:03:32;;;;;;;6.43;2.87;;;27.70;36.40;;;;;;4995146;28;20459;-66
2022/05/21 13:06:01;;;;;;;6.83;2.70;;;27.90;37.90;;;;;;4995507;28;20437;-66
2022/05/21 13:08:31;;;;;;;6.90;2.67;;;28.10;36.50;;;;;;4995279;28;20483;-66
2022/05/21 13:11:01;;;;;;;6.20;2.77;;;28.30;37.20;;;;;;4996514;28;20440;-66
2022/05/21 13:13:32;;;;;;;4.03;2.67;;;27.90;37.00;;;;;;4995245;28;20464;-66
2022/05/21 13:16:01;;;;;;;4.03;2.30;;;27.90;38.10;;;;;;4995638;28;20451;-65
2022/05/21 13:18:44;;;;;;;4.43;1.97;;;28.10;34.90;;;;;;4996206;28;20464;-66
2022/05/21 13:21:20;;;;;;;3.07;2.00;;;28.00;36.40;;;;;;4996780;28;20433;-66
2022/05/21 13:24:12;;;;;;;6.73;1.97;;;28.50;35.00;;;;;;4997097;28;20436;-66